createdAt,value
2022-11-24T04:52:44.652Z,26.23
2022-11-24T04:55:13.162Z,26.73
2022-11-24T04:57:41.709Z,30.67
2022-11-24T05:00:11.705Z,29.40
2022-11-24T05:02:40.324Z,27.73
2022-11-24T05:05:09.720Z,28.77
2022-11-24T05:07:38.293Z,27.37
2022-11-24T05:10:26.270Z,24.87
2022-11-24T05:12:59.591Z,24.87
2022-11-24T05:15:28.339Z,28.17
2022-11-24T05:17:57.101Z,28.37
2022-11-24T05:20:26.097Z,27.57
2022-11-24T05:22:54.425Z,27.50
2022-11-24T05:25:24.181Z,26.50
2022-11-24T05:27:52.572Z,27.43
2022-11-24T05:30:21.117Z,26.37
2022-11-24T05:32:49.493Z,28.40
2022-11-24T05:35:19.017Z,27.57
2022-11-24T05:37:47.686Z,23.87
2022-11-24T05:40:16.269Z,27.77
2022-11-24T05:42:48.256Z,26.73
2022-11-24T05:45:19.166Z,25.70
2022-11-24T05:47:48.206Z,26.67
2022-11-24T05:50:18.982Z,25.33
2022-11-24T05:52:47.765Z,26.03
2022-11-24T05:55:19.706Z,23.97
2022-11-24T05:57:49.596Z,26.17
2022-11-24T06:00:20.337Z,25.67
2022-11-24T06:02:49.288Z,23.93
2022-11-24T06:05:18.042Z,24.13
2022-11-24T06:07:46.798Z,27.13
2022-11-24T06:10:15.782Z,22.70
2022-11-24T06:12:44.360Z,21.83
2022-11-24T06:15:15.028Z,22.47
2022-11-24T06:17:43.359Z,20.90
2022-11-24T06:20:12.610Z,24.87
2022-11-24T06:22:40.993Z,23.03
2022-11-24T06:25:10.673Z,22.40
2022-11-24T06:27:39.137Z,23.60
2022-11-24T06:30:08.386Z,21.63
2022-11-24T06:32:39.221Z,23.00
2022-11-24T06:35:08.210Z,26.00
2022-11-24T06:37:38.147Z,23.43
2022-11-24T06:40:08.878Z,22.10
2022-11-24T06:42:37.672Z,23.03
2022-11-24T06:45:09.467Z,20.80
2022-11-24T06:47:40.319Z,20.73
2022-11-24T06:50:10.673Z,21.67
2022-11-24T06:52:39.151Z,22.60
2022-11-24T06:55:08.916Z,23.10
2022-11-24T06:57:37.430Z,21.27
2022-11-24T07:00:06.602Z,21.70
2022-11-24T07:02:35.229Z,22.77
2022-11-24T07:05:07.019Z,23.60
2022-11-24T07:07:35.561Z,24.13
2022-11-24T07:10:04.296Z,23.17
2022-11-24T07:12:36.074Z,26.33
2022-11-24T07:15:06.010Z,23.97
2022-11-24T07:17:38.031Z,24.30
2022-11-24T07:20:09.857Z,21.80
2022-11-24T07:22:38.278Z,23.73
2022-11-24T07:25:09.891Z,22.63
2022-11-24T07:27:38.563Z,24.03
2022-11-24T07:30:08.085Z,22.67
2022-11-24T07:32:36.582Z,20.27
2022-11-24T07:35:05.496Z,25.17
2022-11-24T07:37:35.328Z,21.50
2022-11-24T07:40:03.856Z,21.93
2022-11-24T07:42:32.315Z,23.73
2022-11-24T07:45:04.120Z,20.67
2022-11-24T07:47:32.516Z,21.23
2022-11-24T07:50:00.947Z,22.80
2022-11-24T07:52:29.365Z,22.73
2022-11-24T07:54:59.735Z,21.80
2022-11-24T07:57:29.165Z,21.10
2022-11-24T07:59:58.722Z,22.50
2022-11-24T08:02:27.214Z,22.80
2022-11-24T08:04:55.696Z,20.00
2022-11-24T08:07:24.129Z,23.40
2022-11-24T08:09:53.040Z,21.80
2022-11-24T08:12:23.010Z,20.50
2022-11-24T08:14:51.784Z,22.00
2022-11-24T08:17:20.354Z,24.73
2022-11-24T08:19:48.872Z,21.17
2022-11-24T08:22:17.589Z,23.23
2022-11-24T08:24:48.585Z,23.33
2022-11-24T08:27:18.317Z,23.73
2022-11-24T08:29:48.393Z,22.37
2022-11-24T08:32:22.001Z,20.97
2022-11-24T08:34:52.111Z,22.23
2022-11-24T08:37:21.290Z,23.97
2022-11-24T08:39:49.696Z,22.00
2022-11-24T08:42:18.181Z,21.30
2022-11-24T08:44:48.115Z,23.27
2022-11-24T08:47:17.021Z,20.37
2022-11-24T08:49:45.518Z,23.07
2022-11-24T08:52:14.154Z,22.13
2022-11-24T08:54:44.539Z,19.67
2022-11-24T08:57:20.203Z,46.03
2022-11-24T08:59:51.928Z,50.17
2022-11-24T09:02:20.457Z,46.53
2022-11-24T09:04:49.053Z,30.40
2022-11-24T09:07:17.870Z,22.20
2022-11-24T09:09:46.479Z,19.07
2022-11-24T09:12:15.056Z,18.67
2022-11-24T09:14:43.925Z,19.53
2022-11-24T09:17:13.985Z,19.53
2022-11-24T09:19:42.472Z,18.83
2022-11-24T09:22:11.246Z,19.40
2022-11-24T09:24:39.726Z,20.13
2022-11-24T09:27:08.352Z,24.53
2022-11-24T09:29:36.998Z,19.63
2022-11-24T09:32:07.113Z,24.57
2022-11-24T09:34:37.315Z,21.23
2022-11-24T09:37:05.912Z,21.13
2022-11-24T09:39:34.655Z,19.00
2022-11-24T09:42:14.590Z,18.90
2022-11-24T09:45:10.412Z,18.17
2022-11-24T09:47:52.239Z,19.07
2022-11-24T09:50:24.265Z,19.57
2022-11-24T09:53:01.252Z,19.37
2022-11-24T09:55:36.057Z,19.40
2022-11-24T09:58:14.891Z,19.10
2022-11-24T10:00:44.197Z,18.57
2022-11-24T10:03:21.243Z,17.93
2022-11-24T10:05:52.984Z,19.70
2022-11-24T10:08:44.483Z,19.57
2022-11-24T10:11:16.505Z,18.80
2022-11-24T10:14:23.843Z,17.77
2022-11-24T10:16:59.225Z,18.83
2022-11-24T10:19:40.960Z,17.37
2022-11-24T10:22:28.770Z,17.57
2022-11-24T10:25:16.905Z,16.37
2022-11-24T10:27:48.287Z,18.63
2022-11-24T10:30:20.997Z,19.07
2022-11-24T10:32:51.530Z,17.53
2022-11-24T10:35:23.164Z,18.53
2022-11-24T10:38:02.323Z,20.03
2022-11-24T10:40:56.665Z,16.03
2022-11-24T10:43:28.521Z,18.23
2022-11-24T10:46:00.953Z,17.80
2022-11-24T10:48:38.832Z,19.93
2022-11-24T10:51:33.876Z,18.07
2022-11-24T10:54:11.268Z,19.20
2022-11-24T10:56:43.704Z,18.13
2022-11-24T10:59:39.708Z,19.97
2022-11-24T11:02:30.470Z,19.20
2022-11-24T11:04:59.256Z,19.10
2022-11-24T11:07:28.731Z,20.40
2022-11-24T11:10:22.359Z,19.67
2022-11-24T11:12:51.526Z,19.93
2022-11-24T11:15:30.292Z,19.23
2022-11-24T11:18:01.339Z,16.87
2022-11-24T11:20:32.769Z,15.17
2022-11-24T11:23:05.158Z,18.00
2022-11-24T11:25:38.486Z,16.93
2022-11-24T11:28:30.598Z,15.50
2022-11-24T11:31:19.978Z,15.50
2022-11-24T11:34:09.433Z,19.63
2022-11-24T11:36:46.324Z,19.03
2022-11-24T11:39:24.350Z,16.57
2022-11-24T11:42:02.362Z,17.03
2022-11-24T11:44:37.911Z,14.67
2022-11-24T11:47:18.407Z,17.63
2022-11-24T11:49:50.599Z,19.80
2022-11-24T11:52:58.814Z,17.40
2022-11-24T11:55:53.998Z,17.50
2022-11-24T11:59:00.407Z,20.20
2022-11-24T12:01:42.672Z,18.90
2022-11-24T12:04:21.845Z,21.40
2022-11-24T12:07:07.606Z,19.00
2022-11-24T12:09:49.991Z,19.80
2022-11-24T12:12:40.834Z,19.40
2022-11-24T12:15:19.933Z,19.47
2022-11-24T12:17:55.545Z,20.57
2022-11-24T12:20:41.898Z,18.40
2022-11-24T12:23:26.752Z,19.37
2022-11-24T12:26:02.831Z,19.37
2022-11-24T12:28:43.553Z,19.63
2022-11-24T12:31:21.444Z,19.60
2022-11-24T12:34:31.614Z,19.53
2022-11-24T12:37:23.034Z,19.13
2022-11-24T12:39:58.387Z,19.07
2022-11-24T12:42:38.766Z,17.77
2022-11-24T12:45:16.457Z,18.23
2022-11-24T12:48:05.202Z,18.30
2022-11-24T12:50:39.403Z,20.23
2022-11-24T12:53:14.536Z,17.90
2022-11-24T12:55:44.986Z,19.00
2022-11-24T12:58:21.364Z,17.60
2022-11-24T13:01:18.922Z,19.60
2022-11-24T13:04:02.233Z,18.17
2022-11-24T13:06:44.425Z,18.73
2022-11-24T13:09:16.542Z,17.33
2022-11-24T13:11:47.145Z,16.67
2022-11-24T13:14:22.465Z,15.90
2022-11-24T13:17:21.890Z,16.87
2022-11-24T13:19:44.033Z,15.97
2022-11-24T13:22:25.747Z,14.87
2022-11-24T13:25:17.685Z,15.87
2022-11-24T13:27:49.727Z,15.20
2022-11-24T13:30:59.883Z,14.87
2022-11-24T13:33:34.373Z,17.00
2022-11-24T13:36:33.314Z,19.70
2022-11-24T13:39:03.427Z,18.67
2022-11-24T13:42:42.175Z,18.50
2022-11-24T13:45:02.256Z,16.93
2022-11-24T13:47:36.858Z,18.30
2022-11-24T13:50:08.303Z,24.97
2022-11-24T13:52:47.418Z,19.77
2022-11-24T13:55:33.424Z,18.03
2022-11-24T13:58:28.811Z,18.13
2022-11-24T14:01:08.508Z,16.07
2022-11-24T14:03:40.438Z,19.47
2022-11-24T14:06:19.010Z,19.17
2022-11-24T14:08:50.140Z,19.23
2022-11-24T14:11:21.036Z,16.60
2022-11-24T14:13:50.838Z,19.13
2022-11-24T14:16:21.873Z,17.00
2022-11-24T14:18:52.070Z,17.67
2022-11-24T14:21:32.043Z,18.03
2022-11-24T14:24:12.661Z,16.57
2022-11-24T14:26:42.590Z,15.87
2022-11-24T14:29:16.388Z,17.17
2022-11-24T14:31:53.263Z,19.17
2022-11-24T14:34:23.887Z,20.73
2022-11-24T14:36:54.768Z,19.97
2022-11-24T14:39:26.218Z,17.70
2022-11-24T14:42:00.562Z,20.97
2022-11-24T14:44:31.135Z,20.03
2022-11-24T14:47:04.492Z,18.70
2022-11-24T14:49:35.208Z,19.70
2022-11-24T14:52:10.228Z,18.83
2022-11-24T14:54:48.287Z,16.90
2022-11-24T14:57:26.303Z,17.03
2022-11-24T15:00:19.532Z,16.53
2022-11-24T15:02:52.043Z,16.50
2022-11-24T15:05:25.664Z,16.07
2022-11-24T15:08:03.628Z,19.97
2022-11-24T15:10:38.730Z,19.77
2022-11-24T15:13:17.688Z,21.20
2022-11-24T15:15:53.048Z,20.47
2022-11-24T15:18:28.423Z,20.13
2022-11-24T15:20:57.816Z,20.17
2022-11-24T15:23:28.360Z,19.77
2022-11-24T15:25:59.694Z,19.43
2022-11-24T15:28:28.301Z,20.63
2022-11-24T15:30:58.180Z,20.33
2022-11-24T15:33:27.220Z,21.47
2022-11-24T15:35:55.927Z,22.37
2022-11-24T15:38:25.166Z,21.83
2022-11-24T15:40:56.820Z,23.40
2022-11-24T15:43:32.028Z,20.43
2022-11-24T15:46:01.961Z,23.17
2022-11-24T15:48:31.489Z,29.13
2022-11-24T15:51:02.582Z,24.43
2022-11-24T15:53:34.385Z,23.03
2022-11-24T15:56:05.987Z,21.97
2022-11-24T15:58:37.384Z,20.27
2022-11-24T16:01:07.224Z,73.80
2022-11-24T16:03:52.724Z,50.77
2022-11-24T16:06:25.057Z,37.07
2022-11-24T16:08:54.269Z,22.37
2022-11-24T16:11:23.094Z,21.80
2022-11-24T16:13:54.584Z,20.27
2022-11-24T16:16:25.401Z,42.90
2022-11-24T16:18:54.270Z,24.53
2022-11-24T16:21:23.444Z,22.97
2022-11-24T16:23:52.054Z,30.30
2022-11-24T16:26:20.902Z,28.10
2022-11-24T16:28:50.173Z,23.73
2022-11-24T16:31:20.484Z,22.00
2022-11-24T16:33:50.960Z,20.80
2022-11-24T16:36:19.569Z,22.50
2022-11-24T16:38:48.160Z,21.87
2022-11-24T16:41:16.765Z,22.27
2022-11-24T16:43:45.318Z,21.87
2022-11-24T16:46:26.154Z,24.93
2022-11-24T16:48:56.553Z,24.50
2022-11-24T16:51:29.966Z,21.43
2022-11-24T16:54:03.265Z,23.43
2022-11-24T16:56:33.040Z,22.77
2022-11-24T16:59:01.990Z,22.13
2022-11-24T17:01:33.247Z,24.60
2022-11-24T17:04:02.130Z,26.07
2022-11-24T17:06:31.056Z,25.87
2022-11-24T17:08:59.727Z,26.57
2022-11-24T17:11:29.496Z,24.70
2022-11-24T17:13:58.910Z,22.50
2022-11-24T17:16:28.726Z,25.73
2022-11-24T17:18:59.064Z,23.97
2022-11-24T17:21:28.859Z,23.27
2022-11-24T17:23:59.379Z,23.63
2022-11-24T17:26:30.741Z,24.00
2022-11-24T17:29:00.613Z,25.57
2022-11-24T17:31:32.668Z,25.77
2022-11-24T17:34:04.102Z,24.60
2022-11-24T17:36:34.696Z,27.37
2022-11-24T17:39:05.429Z,25.80
2022-11-24T17:41:34.750Z,24.27
2022-11-24T17:44:03.294Z,22.73
2022-11-24T17:46:32.522Z,22.53
2022-11-24T17:49:03.250Z,24.17
2022-11-24T17:51:31.814Z,24.87
2022-11-24T17:54:06.021Z,23.40
2022-11-24T17:56:48.598Z,23.70
2022-11-24T17:59:17.156Z,21.83
2022-11-24T18:01:45.684Z,23.80
2022-11-24T18:04:15.642Z,24.53
2022-11-24T18:06:48.806Z,22.10
2022-11-24T18:09:17.316Z,21.30
2022-11-24T18:11:47.014Z,20.00
2022-11-24T18:14:15.393Z,20.17
2022-11-24T18:16:44.396Z,22.07
2022-11-24T18:19:14.448Z,22.70
2022-11-24T18:21:46.579Z,23.13
2022-11-24T18:24:18.527Z,22.37
2022-11-24T18:26:50.519Z,25.37
2022-11-24T18:29:19.035Z,24.37
2022-11-24T18:31:48.679Z,26.10
2022-11-24T18:34:19.773Z,24.97
2022-11-24T18:36:52.164Z,22.87
2022-11-24T18:39:20.903Z,24.90
2022-11-24T18:41:49.229Z,21.93
2022-11-24T18:44:18.899Z,22.87
2022-11-24T18:46:47.693Z,22.77
2022-11-24T18:49:17.683Z,22.67
2022-11-24T18:51:47.346Z,22.13
2022-11-24T18:54:15.757Z,21.00
2022-11-24T18:56:45.083Z,21.07
2022-11-24T18:59:13.690Z,21.13
2022-11-24T19:01:44.555Z,21.40
2022-11-24T19:04:15.666Z,20.23
2022-11-24T19:06:45.576Z,25.77
2022-11-24T19:09:17.392Z,26.93
2022-11-24T19:11:47.424Z,26.73
2022-11-24T19:14:18.141Z,25.43
2022-11-24T19:16:48.004Z,27.87
2022-11-24T19:19:17.361Z,28.57
2022-11-24T19:21:47.739Z,25.93
2022-11-24T19:24:16.341Z,25.93
2022-11-24T19:26:45.518Z,25.77
2022-11-24T19:29:14.976Z,25.07
2022-11-24T19:31:44.071Z,29.07
2022-11-24T19:34:12.910Z,26.60
2022-11-24T19:36:43.341Z,25.13
2022-11-24T19:39:15.734Z,22.70
2022-11-24T19:41:44.107Z,23.23
2022-11-24T19:44:13.689Z,22.17
2022-11-24T19:46:42.552Z,23.07
2022-11-24T19:49:11.257Z,23.80
2022-11-24T19:51:40.869Z,23.10
2022-11-24T19:54:12.995Z,23.37
2022-11-24T19:56:43.062Z,22.10
2022-11-24T19:59:14.752Z,22.67
2022-11-24T20:01:43.912Z,20.27
2022-11-24T20:04:15.240Z,21.20
2022-11-24T20:06:45.193Z,20.33
2022-11-24T20:09:15.758Z,24.30
2022-11-24T20:11:46.638Z,26.07
2022-11-24T20:14:17.691Z,24.83
2022-11-24T20:16:49.278Z,24.73
2022-11-24T20:19:19.402Z,23.33
2022-11-24T20:21:50.153Z,23.30
2022-11-24T20:24:21.080Z,25.13
2022-11-24T20:26:54.388Z,24.97
2022-11-24T20:29:23.331Z,23.23
2022-11-24T20:31:54.395Z,23.90
2022-11-24T20:34:23.582Z,23.50
2022-11-24T20:36:53.813Z,24.53
2022-11-24T20:39:25.631Z,24.27
2022-11-24T20:41:56.574Z,22.10
2022-11-24T20:44:27.968Z,23.73
2022-11-24T20:46:59.787Z,22.90
2022-11-24T20:49:29.155Z,21.00
2022-11-24T20:51:57.744Z,22.53
2022-11-24T20:54:26.489Z,21.57
2022-11-24T20:56:56.539Z,20.27
2022-11-24T20:59:26.871Z,21.33
2022-11-24T21:01:57.385Z,23.17
2022-11-24T21:04:28.479Z,24.57
2022-11-24T21:06:57.066Z,25.40
2022-11-24T21:09:27.270Z,23.90
2022-11-24T21:11:57.543Z,24.83
2022-11-24T21:14:27.440Z,25.23
2022-11-24T21:16:57.731Z,24.77
2022-11-24T21:19:26.084Z,23.67
2022-11-24T21:21:54.502Z,22.40
2022-11-24T21:24:22.929Z,26.87
2022-11-24T21:26:53.215Z,27.60
2022-11-24T21:29:25.659Z,25.13
2022-11-24T21:31:55.069Z,25.40
2022-11-24T21:34:23.878Z,24.47
2022-11-24T21:36:52.487Z,26.00
2022-11-24T21:39:21.177Z,26.70
2022-11-24T21:41:49.760Z,27.90
2022-11-24T21:44:18.277Z,26.30
2022-11-24T21:46:54.327Z,25.50
2022-11-24T21:49:24.401Z,25.10
2022-11-24T21:51:56.237Z,27.37
2022-11-24T21:54:27.203Z,24.93
2022-11-24T21:56:55.770Z,24.83
2022-11-24T21:59:24.370Z,25.10
2022-11-24T22:01:54.346Z,24.27
2022-11-24T22:04:23.856Z,24.90
2022-11-24T22:06:54.568Z,26.53
2022-11-24T22:09:23.116Z,25.23
2022-11-24T22:11:52.719Z,26.23
2022-11-24T22:14:21.640Z,23.37
2022-11-24T22:16:50.353Z,22.07
2022-11-24T22:19:21.086Z,24.87
2022-11-24T22:21:49.819Z,21.30
2022-11-24T22:24:21.693Z,19.77
2022-11-24T22:26:52.936Z,20.27
2022-11-24T22:29:21.762Z,19.70
2022-11-24T22:31:50.335Z,22.30
2022-11-24T22:34:20.376Z,24.67
2022-11-24T22:36:49.090Z,22.73
2022-11-24T22:39:19.423Z,21.87
2022-11-24T22:41:48.023Z,19.60
2022-11-24T22:44:18.109Z,18.40
2022-11-24T22:46:46.752Z,17.47
2022-11-24T22:49:15.476Z,19.27
2022-11-24T22:51:45.435Z,17.30
2022-11-24T22:54:15.146Z,17.47
2022-11-24T22:56:43.653Z,15.57
2022-11-24T22:59:12.505Z,16.87
2022-11-24T23:01:40.998Z,20.13
2022-11-24T23:04:09.908Z,17.90
2022-11-24T23:06:44.384Z,17.83
2022-11-24T23:09:13.431Z,17.17
2022-11-24T23:11:42.581Z,19.33
2022-11-24T23:14:15.043Z,19.63
2022-11-24T23:16:44.781Z,16.17
2022-11-24T23:19:15.753Z,16.13
2022-11-24T23:21:45.675Z,105.37
2022-11-24T23:24:14.050Z,96.73
2022-11-24T23:26:43.855Z,61.63
2022-11-24T23:29:12.943Z,49.63
2022-11-24T23:31:41.537Z,37.83
2022-11-24T23:34:12.585Z,25.57
2022-11-24T23:36:40.960Z,20.70
2022-11-24T23:39:14.361Z,17.53
2022-11-24T23:41:43.130Z,16.00
2022-11-24T23:44:11.518Z,14.67
2022-11-24T23:46:39.886Z,15.60
2022-11-24T23:49:08.490Z,17.93
